createdAt,value
2022-09-16T00:00:28.022Z,98693.44
2022-09-16T00:02:55.579Z,98697.25
2022-09-16T00:05:22.924Z,98697.19
2022-09-16T00:07:50.277Z,98697.25
2022-09-16T00:10:18.283Z,98691.81
2022-09-16T00:12:45.506Z,98694.75
2022-09-16T00:15:12.748Z,98699.53
2022-09-16T00:17:40.189Z,98715.44
2022-09-16T00:20:07.780Z,98718.78
2022-09-16T00:22:34.965Z,98718.81
2022-09-16T00:25:02.424Z,98699.72
2022-09-16T00:27:29.690Z,98696.38
2022-09-16T00:29:56.872Z,98704.34
2022-09-16T00:32:25.115Z,98702.94
2022-09-16T00:34:53.078Z,98710.66
2022-09-16T00:37:20.372Z,98716.75
2022-09-16T00:39:49.225Z,98711.47
2022-09-16T00:42:17.143Z,98722.63
2022-09-16T00:45:02.152Z,98733.47
2022-09-16T00:47:34.409Z,98726.88
2022-09-16T00:50:12.192Z,98745.47
2022-09-16T00:52:39.929Z,98750.56
2022-09-16T00:55:08.252Z,98742.84
2022-09-16T00:57:35.465Z,98736.72
2022-09-16T01:00:04.080Z,98736.50
2022-09-16T01:02:31.368Z,98734.66
2022-09-16T01:05:00.657Z,98727.56
2022-09-16T01:07:31.956Z,98723.03
2022-09-16T01:09:59.718Z,98721.66
2022-09-16T01:12:27.217Z,98732.38
2022-09-16T01:14:54.706Z,98725.59
2022-09-16T01:17:30.985Z,98736.66
2022-09-16T01:20:17.111Z,98743.47
2022-09-16T01:22:44.296Z,98752.56
2022-09-16T01:25:17.671Z,98757.56
2022-09-16T01:27:54.433Z,98747.81
2022-09-16T01:30:34.470Z,98757.84
2022-09-16T01:33:06.071Z,98756.78
2022-09-16T01:35:56.944Z,98749.69
2022-09-16T01:38:43.200Z,98742.03
2022-09-16T01:41:10.671Z,98746.31
2022-09-16T01:43:37.873Z,98745.50
2022-09-16T01:46:12.566Z,98737.97
2022-09-16T01:48:42.365Z,98748.94
2022-09-16T01:51:12.348Z,98752.00
2022-09-16T01:53:44.477Z,98742.81
2022-09-16T01:56:11.799Z,98741.28
2022-09-16T01:58:40.841Z,98741.09
2022-09-16T02:01:28.579Z,98737.81
2022-09-16T02:03:57.974Z,98728.97
2022-09-16T02:06:25.160Z,98733.97
2022-09-16T02:08:54.228Z,98733.75
2022-09-16T02:11:21.798Z,98738.41
2022-09-16T02:13:52.106Z,98748.59
2022-09-16T02:16:23.553Z,98745.13
2022-09-16T02:18:54.844Z,98751.66
2022-09-16T02:21:22.358Z,98753.50
2022-09-16T02:23:55.172Z,98751.41
2022-09-16T02:26:25.071Z,98764.41
2022-09-16T02:28:52.237Z,98763.84
2022-09-16T02:31:20.789Z,98762.22
2022-09-16T02:33:49.579Z,98770.38
2022-09-16T02:36:19.372Z,98770.69
2022-09-16T02:38:48.007Z,98773.41
2022-09-16T02:41:15.568Z,98770.50
2022-09-16T02:43:42.763Z,98779.69
2022-09-16T02:46:20.257Z,98778.12
2022-09-16T02:48:50.895Z,98776.09
2022-09-16T02:51:37.173Z,98777.16
2022-09-16T02:54:23.070Z,98784.28
2022-09-16T02:56:50.255Z,98780.38
2022-09-16T02:59:17.775Z,98779.84
2022-09-16T03:01:46.131Z,98783.63
2022-09-16T03:04:16.899Z,98778.97
2022-09-16T03:06:44.652Z,98777.84
2022-09-16T03:09:12.500Z,98784.34
2022-09-16T03:11:42.735Z,98785.47
2022-09-16T03:14:10.137Z,98779.16
2022-09-16T03:16:47.109Z,98779.31
2022-09-16T03:19:36.868Z,98782.16
2022-09-16T03:22:07.209Z,98787.16
2022-09-16T03:24:34.633Z,98789.97
2022-09-16T03:27:06.455Z,98800.00
2022-09-16T03:29:34.098Z,98788.87
2022-09-16T03:32:18.872Z,98789.81
2022-09-16T03:35:02.820Z,98795.25
2022-09-16T03:37:34.283Z,98784.81
2022-09-16T03:40:04.734Z,98780.63
2022-09-16T03:42:32.276Z,98788.72
2022-09-16T03:44:59.557Z,98804.06
2022-09-16T03:47:26.824Z,98804.91
2022-09-16T03:49:54.290Z,98801.31
2022-09-16T03:52:21.585Z,98800.47
2022-09-16T03:54:48.803Z,98801.03
2022-09-16T03:57:16.323Z,98804.69
2022-09-16T03:59:43.518Z,98801.12
2022-09-16T04:02:10.813Z,98811.16
2022-09-16T04:04:38.500Z,98802.63
2022-09-16T04:07:05.746Z,98813.53
2022-09-16T04:09:33.122Z,98806.44
2022-09-16T04:12:00.664Z,98807.69
2022-09-16T04:14:27.850Z,98803.63
2022-09-16T04:16:55.209Z,98794.09
2022-09-16T04:19:22.813Z,98797.56
2022-09-16T04:21:50.031Z,98802.25
2022-09-16T04:24:17.581Z,98802.28
2022-09-16T04:26:45.603Z,98809.97
2022-09-16T04:29:12.851Z,98812.75
2022-09-16T04:31:40.046Z,98806.47
2022-09-16T04:34:07.536Z,98813.78
2022-09-16T04:36:34.767Z,98811.19
2022-09-16T04:39:02.041Z,98809.16
2022-09-16T04:41:29.618Z,98815.22
2022-09-16T04:43:57.540Z,98816.59
2022-09-16T04:46:25.478Z,98820.88
2022-09-16T04:48:53.433Z,98816.00
2022-09-16T04:51:20.942Z,98811.84
2022-09-16T04:53:48.500Z,98806.84
2022-09-16T04:56:16.873Z,98813.38
2022-09-16T04:58:48.192Z,98818.41
2022-09-16T05:01:16.542Z,98819.00
2022-09-16T05:03:44.699Z,98826.75
2022-09-16T05:06:20.431Z,98810.41
2022-09-16T05:08:49.053Z,98802.78
2022-09-16T05:11:17.247Z,98808.72
2022-09-16T05:13:44.546Z,98822.97
2022-09-16T05:16:13.221Z,98819.87
2022-09-16T05:18:40.960Z,98834.75
2022-09-16T05:21:09.375Z,98822.41
2022-09-16T05:23:37.915Z,98820.09
2022-09-16T05:26:05.928Z,98829.75
2022-09-16T05:28:33.902Z,98838.50
2022-09-16T05:31:11.104Z,98845.00
2022-09-16T05:33:39.084Z,98848.81
2022-09-16T05:36:07.096Z,98839.81
2022-09-16T05:38:34.438Z,98835.63
2022-09-16T05:41:01.926Z,98842.09
2022-09-16T05:43:29.491Z,98843.16
2022-09-16T05:45:57.117Z,98844.84
2022-09-16T05:48:24.326Z,98846.50
2022-09-16T05:51:01.793Z,98850.06
2022-09-16T05:53:29.648Z,98841.72
2022-09-16T05:56:04.636Z,98831.25
2022-09-16T05:58:32.452Z,98822.63
2022-09-16T06:01:04.208Z,98828.28
2022-09-16T06:03:32.040Z,98845.25
2022-09-16T06:06:00.045Z,98842.28
2022-09-16T06:08:28.398Z,98834.94
2022-09-16T06:10:55.977Z,98842.50
2022-09-16T06:13:23.275Z,98848.97
2022-09-16T06:15:57.048Z,98849.44
2022-09-16T06:18:25.100Z,98837.94
2022-09-16T06:20:52.345Z,98843.28
2022-09-16T06:23:20.110Z,98842.66
2022-09-16T06:25:47.635Z,98852.31
2022-09-16T06:28:15.415Z,98841.22
2022-09-16T06:30:42.822Z,98844.59
2022-09-16T06:33:12.826Z,98846.50
2022-09-16T06:35:40.094Z,98843.56
2022-09-16T06:38:07.284Z,98832.28
2022-09-16T06:40:34.815Z,98846.44
2022-09-16T06:43:02.882Z,98844.06
2022-09-16T06:45:30.120Z,98847.00
2022-09-16T06:47:59.154Z,98845.44
2022-09-16T06:50:26.382Z,98848.16
2022-09-16T06:52:53.653Z,98843.13
2022-09-16T06:55:21.290Z,98842.66
2022-09-16T06:57:48.522Z,98837.69
2022-09-16T07:00:15.759Z,98843.31
2022-09-16T07:02:43.260Z,98847.63
2022-09-16T07:05:12.080Z,98851.09
2022-09-16T07:07:39.568Z,98860.06
2022-09-16T07:10:07.444Z,98859.03
2022-09-16T07:12:34.757Z,98862.38
2022-09-16T07:15:02.375Z,98858.34
2022-09-16T07:17:30.157Z,98870.12
2022-09-16T07:19:57.387Z,98871.78
2022-09-16T07:22:24.594Z,98869.34
2022-09-16T07:24:52.087Z,98868.75
2022-09-16T07:27:19.546Z,98869.50
2022-09-16T07:29:46.731Z,98874.03
2022-09-16T07:32:14.299Z,98875.56
2022-09-16T07:34:41.501Z,98877.88
2022-09-16T07:37:08.716Z,98883.50
2022-09-16T07:39:36.325Z,98879.31
2022-09-16T07:42:06.169Z,98887.56
2022-09-16T07:44:33.600Z,98888.78
2022-09-16T07:47:01.116Z,98886.88
2022-09-16T07:49:28.362Z,98895.63
2022-09-16T07:51:55.728Z,98905.97
2022-09-16T07:54:23.293Z,98904.09
2022-09-16T07:56:50.509Z,98897.94
2022-09-16T07:59:19.400Z,98903.78
2022-09-16T08:01:50.447Z,98897.50
2022-09-16T08:04:18.835Z,98907.72
2022-09-16T08:06:46.066Z,98902.97
2022-09-16T08:12:01.888Z,98906.19
2022-09-16T08:14:29.193Z,98913.25
2022-09-16T08:16:56.475Z,98916.81
2022-09-16T08:19:24.016Z,98908.22
2022-09-16T08:21:51.383Z,98909.94
2022-09-16T08:24:18.685Z,98908.72
2022-09-16T08:26:46.357Z,98904.59
2022-09-16T08:29:13.880Z,98896.75
2022-09-16T08:31:41.383Z,98906.72
2022-09-16T08:34:08.960Z,98899.88
2022-09-16T08:36:36.610Z,98886.56
2022-09-16T08:39:03.972Z,98893.47
2022-09-16T08:41:46.849Z,98909.84
2022-09-16T08:44:37.481Z,98908.03
2022-09-16T08:47:07.507Z,98908.56
2022-09-16T08:49:44.023Z,98900.69
2022-09-16T08:52:16.501Z,98899.16
2022-09-16T08:54:45.356Z,98892.88
2022-09-16T08:57:15.021Z,98905.84
2022-09-16T08:59:43.735Z,98919.59
2022-09-16T09:02:20.481Z,98927.84
2022-09-16T09:04:48.291Z,98926.16
2022-09-16T09:07:46.423Z,98925.16
2022-09-16T09:10:14.405Z,98927.84
2022-09-16T09:12:54.663Z,98920.97
2022-09-16T09:15:31.468Z,98913.78
2022-09-16T09:18:01.887Z,98903.03
2022-09-16T09:20:48.134Z,98898.63
2022-09-16T09:23:28.029Z,98901.00
2022-09-16T09:25:59.819Z,98899.34
2022-09-16T09:28:42.523Z,98892.28
2022-09-16T09:31:11.022Z,98893.53
2022-09-16T09:33:48.862Z,98901.44
2022-09-16T09:36:28.950Z,98895.53
2022-09-16T09:39:14.544Z,98901.91
2022-09-16T09:41:46.847Z,98901.69
2022-09-16T09:44:20.331Z,98904.25
2022-09-16T09:46:48.785Z,98913.25
2022-09-16T09:49:34.489Z,98907.41
2022-09-16T09:52:03.338Z,98903.22
2022-09-16T09:54:32.238Z,98898.59
2022-09-16T09:57:01.740Z,98891.47
2022-09-16T09:59:48.614Z,98888.78
2022-09-16T10:02:17.328Z,98880.16
2022-09-16T10:04:44.913Z,98871.38
2022-09-16T10:07:12.484Z,98873.06
2022-09-16T10:09:45.445Z,98880.16
2022-09-16T10:12:13.038Z,98880.81
2022-09-16T10:14:40.370Z,98882.63
2022-09-16T10:17:17.325Z,98887.50
2022-09-16T10:19:55.680Z,98888.75
2022-09-16T10:22:30.297Z,98880.81
2022-09-16T10:25:01.914Z,98887.69
2022-09-16T10:27:30.147Z,98884.78
2022-09-16T10:30:17.145Z,98886.44
2022-09-16T10:32:56.675Z,98888.31
2022-09-16T10:35:28.057Z,98879.75
2022-09-16T10:37:56.497Z,98878.91
2022-09-16T10:40:24.733Z,98872.59
2022-09-16T10:42:52.867Z,98877.00
2022-09-16T10:45:29.662Z,98883.50
2022-09-16T10:47:59.955Z,98881.00
2022-09-16T10:50:29.517Z,98872.59
2022-09-16T10:52:57.310Z,98885.38
2022-09-16T10:55:30.675Z,98886.03
2022-09-16T10:58:27.930Z,98888.94
2022-09-16T11:01:14.422Z,98891.06
2022-09-16T11:03:51.716Z,98895.69
2022-09-16T11:06:34.315Z,98898.41
2022-09-16T11:09:06.061Z,98899.59
2022-09-16T11:11:36.297Z,98899.22
2022-09-16T11:14:03.778Z,98890.63
2022-09-16T11:16:37.250Z,98890.41
2022-09-16T11:19:04.845Z,98884.78
2022-09-16T11:21:39.313Z,98892.72
2022-09-16T11:24:22.213Z,98884.56
2022-09-16T11:26:57.218Z,98872.22
2022-09-16T11:29:47.795Z,98864.25
2022-09-16T11:32:39.108Z,98865.69
2022-09-16T11:35:25.413Z,98857.47
2022-09-16T11:37:58.904Z,98855.03
2022-09-16T11:40:41.779Z,98860.91
2022-09-16T11:43:28.501Z,98858.13
2022-09-16T11:45:58.657Z,98853.72
2022-09-16T11:48:29.040Z,98849.78
2022-09-16T11:51:15.722Z,98853.75
2022-09-16T11:53:49.927Z,98847.00
2022-09-16T11:56:19.101Z,98840.94
2022-09-16T11:59:15.685Z,98839.62
2022-09-16T12:01:44.913Z,98848.19
2022-09-16T12:04:12.509Z,98847.91
2022-09-16T12:06:46.400Z,98840.59
2022-09-16T12:09:15.762Z,98835.13
2022-09-16T12:11:52.117Z,98834.31
2022-09-16T12:14:28.329Z,98830.09
2022-09-16T12:16:57.143Z,98836.50
2022-09-16T12:19:34.615Z,98840.63
2022-09-16T12:22:04.589Z,98836.03
2022-09-16T12:24:37.758Z,98835.63
2022-09-16T12:27:25.032Z,98828.94
2022-09-16T12:29:56.422Z,98825.56
2022-09-16T12:32:36.063Z,98835.44
2022-09-16T12:35:05.543Z,98833.19
2022-09-16T12:37:33.857Z,98836.38
2022-09-16T12:40:01.388Z,98819.37
2022-09-16T12:42:47.675Z,98821.88
2022-09-16T12:45:30.035Z,98823.16
2022-09-16T12:48:07.013Z,98811.75
2022-09-16T12:50:42.523Z,98815.97
2022-09-16T12:53:13.185Z,98805.41
2022-09-16T12:55:43.610Z,98805.56
2022-09-16T12:58:17.307Z,98801.84
2022-09-16T13:00:53.772Z,98799.44
2022-09-16T13:03:22.802Z,98804.28
2022-09-16T13:05:50.885Z,98794.78
2022-09-16T13:08:18.139Z,98800.12
2022-09-16T13:13:52.249Z,98792.75
2022-09-16T13:16:33.123Z,98795.47
2022-09-16T13:19:22.565Z,98799.66
2022-09-16T13:21:50.074Z,98799.69
2022-09-16T13:24:17.356Z,98789.19
2022-09-16T13:26:45.163Z,98798.38
2022-09-16T13:29:26.049Z,98797.94
2022-09-16T13:31:53.567Z,98788.03
2022-09-16T13:34:21.838Z,98788.16
2022-09-16T13:36:49.211Z,98789.59
2022-09-16T13:39:29.116Z,98795.06
2022-09-16T13:41:57.107Z,98783.34
2022-09-16T13:44:44.745Z,98789.22
2022-09-16T13:47:12.231Z,98782.06
2022-09-16T13:49:53.321Z,98775.97
2022-09-16T13:52:22.136Z,98766.78
2022-09-16T13:55:09.482Z,98762.16
2022-09-16T13:57:37.739Z,98765.44
2022-09-16T14:00:05.398Z,98752.16
2022-09-16T14:02:52.266Z,98759.72
2022-09-16T14:05:29.851Z,98749.63
2022-09-16T14:08:12.571Z,98758.44
2022-09-16T14:10:43.345Z,98759.22
2022-09-16T14:13:14.968Z,98752.13
2022-09-16T14:15:43.628Z,98743.09
2022-09-16T14:18:15.304Z,98751.03
2022-09-16T14:21:18.129Z,98744.75
2022-09-16T14:23:45.735Z,98746.00
2022-09-16T14:26:13.827Z,98745.34
2022-09-16T14:28:41.144Z,98750.47
2022-09-16T14:31:11.797Z,98747.69
2022-09-16T14:34:11.642Z,98746.25
2022-09-16T14:36:40.388Z,98758.22
2022-09-16T14:39:07.618Z,98754.44
2022-09-16T14:41:44.462Z,98756.13
2022-09-16T14:44:24.704Z,98740.00
2022-09-16T14:46:54.421Z,98738.06
2022-09-16T14:49:28.891Z,98731.00
2022-09-16T14:51:57.937Z,98728.28
2022-09-16T14:54:25.926Z,98734.97
2022-09-16T14:57:04.171Z,98735.37
2022-09-16T14:59:33.671Z,98729.94
2022-09-16T15:02:06.062Z,98726.78
2022-09-16T15:04:33.762Z,98724.88
2022-09-16T15:07:09.545Z,98721.31
2022-09-16T15:09:42.631Z,98729.66
2022-09-16T15:12:16.551Z,98738.06
2022-09-16T15:14:43.808Z,98730.97
2022-09-16T15:17:15.306Z,98733.72
2022-09-16T15:19:42.538Z,98729.53
2022-09-16T15:22:12.992Z,98734.34
2022-09-16T15:24:41.206Z,98742.69
2022-09-16T15:27:08.538Z,98735.97
2022-09-16T15:29:38.584Z,98741.25
2022-09-16T15:32:06.896Z,98745.66
2022-09-16T15:34:34.220Z,98745.19
2022-09-16T15:37:02.072Z,98741.47
2022-09-16T15:39:34.124Z,98745.03
2022-09-16T15:42:06.133Z,98752.34
2022-09-16T15:44:37.345Z,98751.91
2022-09-16T15:47:04.885Z,98759.06
2022-09-16T15:49:33.138Z,98762.41
2022-09-16T15:52:09.157Z,98757.38
2022-09-16T15:54:37.477Z,98763.25
2022-09-16T15:57:16.143Z,98745.84
2022-09-16T15:59:59.705Z,98744.63
2022-09-16T16:02:35.128Z,98743.37
2022-09-16T16:05:07.798Z,98737.06
2022-09-16T16:07:42.295Z,98732.47
2022-09-16T16:10:20.371Z,98735.19
2022-09-16T16:12:49.295Z,98725.53
2022-09-16T16:15:19.091Z,98724.06
2022-09-16T16:17:47.050Z,98720.75
2022-09-16T16:20:14.800Z,98721.78
2022-09-16T16:22:44.787Z,98720.09
2022-09-16T16:25:12.271Z,98713.19
2022-09-16T16:27:39.900Z,98715.91
2022-09-16T16:30:07.746Z,98713.19
2022-09-16T16:32:35.145Z,98713.37
2022-09-16T16:35:02.856Z,98701.25
2022-09-16T16:37:47.149Z,98702.28
2022-09-16T16:40:16.123Z,98689.72
2022-09-16T16:42:44.188Z,98694.31
2022-09-16T16:45:13.015Z,98691.84
2022-09-16T16:47:40.336Z,98704.56
2022-09-16T16:50:08.019Z,98707.72
2022-09-16T16:52:35.249Z,98699.78
2022-09-16T16:55:02.478Z,98706.91
2022-09-16T16:57:32.733Z,98701.00
2022-09-16T16:59:59.959Z,98699.97
2022-09-16T17:02:27.477Z,98702.03
2022-09-16T17:04:54.978Z,98695.34
2022-09-16T17:07:26.093Z,98698.69
2022-09-16T17:09:54.373Z,98707.31
2022-09-16T17:12:22.794Z,98706.00
2022-09-16T17:14:50.293Z,98698.06
2022-09-16T17:17:17.608Z,98698.69
2022-09-16T17:19:45.091Z,98695.16
2022-09-16T17:22:12.333Z,98685.31
2022-09-16T17:24:39.772Z,98685.53
2022-09-16T17:27:08.462Z,98688.66
2022-09-16T17:29:35.672Z,98690.78
2022-09-16T17:32:03.395Z,98701.41
2022-09-16T17:34:31.934Z,98687.63
2022-09-16T17:36:59.370Z,98685.94
2022-09-16T17:39:28.867Z,98677.75
2022-09-16T17:41:57.969Z,98688.66
2022-09-16T17:44:25.492Z,98705.63
2022-09-16T17:46:53.774Z,98706.69
2022-09-16T17:49:22.330Z,98706.69
2022-09-16T17:51:50.114Z,98715.47
2022-09-16T17:54:17.942Z,98713.00
2022-09-16T17:56:45.717Z,98708.56
2022-09-16T17:59:13.535Z,98698.97
2022-09-16T18:01:42.227Z,98690.16
2022-09-16T18:04:11.859Z,98700.44
2022-09-16T18:06:40.482Z,98691.63
2022-09-16T18:09:08.149Z,98689.53
2022-09-16T18:11:36.061Z,98688.91
2022-09-16T18:14:04.580Z,98696.88
2022-09-16T18:16:32.104Z,98689.53
2022-09-16T18:19:00.226Z,98695.19
2022-09-16T18:21:28.882Z,98707.56
2022-09-16T18:23:59.167Z,98719.28
2022-09-16T18:26:38.238Z,98724.50
2022-09-16T18:29:10.849Z,98716.72
2022-09-16T18:31:40.613Z,98724.72
2022-09-16T18:34:09.407Z,98728.03
2022-09-16T18:36:37.804Z,98717.41
2022-09-16T18:39:07.285Z,98716.94
2022-09-16T18:41:35.368Z,98709.19
2022-09-16T18:44:05.266Z,98702.06
2022-09-16T18:46:37.298Z,98705.22
2022-09-16T18:49:05.445Z,98694.53
2022-09-16T18:51:39.602Z,98697.91
2022-09-16T18:54:11.056Z,98690.97
2022-09-16T18:56:41.511Z,98694.94
2022-09-16T18:59:23.849Z,98705.41
2022-09-16T19:01:56.646Z,98709.19
2022-09-16T19:04:25.161Z,98704.16
2022-09-16T19:06:54.590Z,98690.56
2022-09-16T19:09:24.782Z,98682.59
2022-09-16T19:11:52.956Z,98680.91
2022-09-16T19:14:24.239Z,98674.41
2022-09-16T19:16:52.081Z,98689.50
2022-09-16T19:19:19.834Z,98704.72
2022-09-16T19:21:47.727Z,98704.91
2022-09-16T19:24:16.676Z,98715.59
2022-09-16T19:26:44.292Z,98719.38
2022-09-16T19:29:12.471Z,98711.63
2022-09-16T19:31:40.530Z,98704.31
2022-09-16T19:34:08.255Z,98706.59
2022-09-16T19:36:36.479Z,98701.78
2022-09-16T19:39:04.757Z,98694.84
2022-09-16T19:41:33.721Z,98698.88
2022-09-16T19:44:02.169Z,98708.31
2022-09-16T19:46:31.731Z,98703.50
2022-09-16T19:48:59.055Z,98694.94
2022-09-16T19:51:26.871Z,98693.69
2022-09-16T19:53:54.353Z,98695.53
2022-09-16T19:56:22.651Z,98706.88
2022-09-16T19:58:51.117Z,98698.91
2022-09-16T20:01:19.642Z,98701.62
2022-09-16T20:03:49.351Z,98706.00
2022-09-16T20:06:17.668Z,98702.47
2022-09-16T20:08:45.720Z,98707.47
2022-09-16T20:11:13.310Z,98707.72
2022-09-16T20:13:41.138Z,98705.81
2022-09-16T20:16:09.150Z,98711.66
2022-09-16T20:18:36.833Z,98707.47
2022-09-16T20:21:04.963Z,98702.84
2022-09-16T20:23:32.559Z,98705.16
2022-09-16T20:26:03.972Z,98702.66
2022-09-16T20:28:32.054Z,98694.91
2022-09-16T20:30:59.799Z,98700.78
2022-09-16T20:33:31.267Z,98707.47
2022-09-16T20:36:07.440Z,98706.63
2022-09-16T20:38:34.715Z,98704.16
2022-09-16T20:41:06.004Z,98704.16
2022-09-16T20:43:33.544Z,98708.31
2022-09-16T20:46:11.920Z,98719.00
2022-09-16T20:48:40.327Z,98729.63
2022-09-16T20:51:09.020Z,98743.22
2022-09-16T20:53:36.781Z,98742.19
2022-09-16T20:56:05.275Z,98747.59
2022-09-16T20:58:35.693Z,98754.22
2022-09-16T21:01:03.873Z,98746.56
2022-09-16T21:03:31.721Z,98750.56
2022-09-16T21:06:02.392Z,98745.91
2022-09-16T21:08:33.766Z,98736.69
2022-09-16T21:11:05.471Z,98745.63
2022-09-16T21:13:33.172Z,98744.44
2022-09-16T21:16:00.609Z,98736.34
2022-09-16T21:18:28.409Z,98744.09
2022-09-16T21:20:59.537Z,98749.13
2022-09-16T21:23:26.941Z,98746.22
2022-09-16T21:25:55.321Z,98753.13
2022-09-16T21:28:23.259Z,98758.09
2022-09-16T21:30:57.905Z,98777.88
2022-09-16T21:33:27.345Z,98780.91
2022-09-16T21:35:54.987Z,98786.72
2022-09-16T21:38:22.959Z,98781.72
2022-09-16T21:40:57.074Z,98779.97
2022-09-16T21:43:28.026Z,98772.16
2022-09-16T21:45:55.640Z,98769.00
2022-09-16T21:48:23.011Z,98763.22
2022-09-16T21:50:50.502Z,98771.41
2022-09-16T21:53:17.996Z,98754.22
2022-09-16T21:55:45.184Z,98770.06
2022-09-16T21:58:12.453Z,98761.06
2022-09-16T22:00:40.577Z,98767.22
2022-09-16T22:03:08.128Z,98769.41
2022-09-16T22:05:35.412Z,98768.06
2022-09-16T22:08:02.912Z,98775.94
2022-09-16T22:10:30.431Z,98787.50
2022-09-16T22:12:57.692Z,98785.84
2022-09-16T22:15:25.040Z,98791.88
2022-09-16T22:17:54.337Z,98792.03
2022-09-16T22:20:23.527Z,98801.72
2022-09-16T22:22:50.808Z,98810.59
2022-09-16T22:25:18.403Z,98806.56
2022-09-16T22:27:45.633Z,98815.62
2022-09-16T22:30:12.970Z,98818.69
2022-09-16T22:32:41.318Z,98826.53
2022-09-16T22:35:08.987Z,98817.22
2022-09-16T22:37:36.174Z,98822.06
2022-09-16T22:40:04.171Z,98829.53
2022-09-16T22:42:31.422Z,98828.69
2022-09-16T22:44:58.593Z,98828.38
2022-09-16T22:47:26.151Z,98835.13
2022-09-16T22:49:54.076Z,98839.66
2022-09-16T22:52:21.325Z,98837.88
2022-09-16T22:54:48.839Z,98830.59
2022-09-16T22:57:16.299Z,98827.16
2022-09-16T22:59:43.833Z,98832.00
2022-09-16T23:02:11.339Z,98829.09
2022-09-16T23:04:38.683Z,98823.53
2022-09-16T23:07:06.004Z,98825.03
2022-09-16T23:09:52.515Z,98831.19
2022-09-16T23:12:19.699Z,98822.97
2022-09-16T23:14:47.168Z,98822.16
2022-09-16T23:17:14.658Z,98813.88
2022-09-16T23:19:41.860Z,98812.09
2022-09-16T23:22:09.332Z,98801.69
2022-09-16T23:24:36.583Z,98804.69
2022-09-16T23:27:03.900Z,98805.37
2022-09-16T23:29:31.388Z,98790.03
2022-09-16T23:32:02.587Z,98789.13
2022-09-16T23:34:29.855Z,98789.22
2022-09-16T23:36:57.334Z,98783.31
2022-09-16T23:39:24.586Z,98773.44
2022-09-16T23:41:52.454Z,98761.28
2022-09-16T23:44:22.408Z,98763.75
2022-09-16T23:46:49.710Z,98763.06
2022-09-16T23:49:19.354Z,98752.75
2022-09-16T23:51:47.254Z,98754.69
2022-09-16T23:54:14.511Z,98742.16
2022-09-16T23:56:42.758Z,98744.03
2022-09-16T23:59:10.399Z,98742.63
